sensor_id;sensor_type;location;lat;lon;timestamp;P1;durP1;ratioP1;P2;durP2;ratioP2
77099;SDS011;66602;48.922;2.414;2023-11-18T00:00:25;11.13;;;7.88;;
77099;SDS011;66602;48.922;2.414;2023-11-18T00:02:50;11.32;;;8.68;;
77099;SDS011;66602;48.922;2.414;2023-11-18T00:05:17;13.77;;;8.40;;
77099;SDS011;66602;48.922;2.414;2023-11-18T00:07:43;9.60;;;8.18;;
77099;SDS011;66602;48.922;2.414;2023-11-18T00:10:09;14.30;;;8.20;;
77099;SDS011;66602;48.922;2.414;2023-11-18T00:12:35;20.90;;;11.73;;
77099;SDS011;66602;48.922;2.414;2023-11-18T00:15:05;19.83;;;12.60;;
77099;SDS011;66602;48.922;2.414;2023-11-18T00:17:33;13.25;;;10.25;;
77099;SDS011;66602;48.922;2.414;2023-11-18T00:19:59;12.25;;;8.85;;
77099;SDS011;66602;48.922;2.414;2023-11-18T00:22:24;10.73;;;9.43;;
77099;SDS011;66602;48.922;2.414;2023-11-18T00:24:50;10.32;;;9.23;;
77099;SDS011;66602;48.922;2.414;2023-11-18T00:27:17;15.25;;;8.68;;
77099;SDS011;66602;48.922;2.414;2023-11-18T00:29:44;11.93;;;8.45;;
77099;SDS011;66602;48.922;2.414;2023-11-18T00:32:10;15.63;;;9.32;;
77099;SDS011;66602;48.922;2.414;2023-11-18T00:34:36;9.38;;;8.48;;
77099;SDS011;66602;48.922;2.414;2023-11-18T00:37:01;11.73;;;8.80;;
77099;SDS011;66602;48.922;2.414;2023-11-18T00:39:27;10.57;;;8.60;;
77099;SDS011;66602;48.922;2.414;2023-11-18T00:41:53;12.00;;;9.35;;
77099;SDS011;66602;48.922;2.414;2023-11-18T00:44:18;11.23;;;9.40;;
77099;SDS011;66602;48.922;2.414;2023-11-18T00:46:44;12.35;;;8.77;;
77099;SDS011;66602;48.922;2.414;2023-11-18T00:49:10;13.00;;;9.02;;
77099;SDS011;66602;48.922;2.414;2023-11-18T00:51:37;10.25;;;9.35;;
77099;SDS011;66602;48.922;2.414;2023-11-18T00:54:02;13.82;;;9.85;;
77099;SDS011;66602;48.922;2.414;2023-11-18T00:56:30;16.52;;;10.23;;
77099;SDS011;66602;48.922;2.414;2023-11-18T00:58:59;12.18;;;9.35;;
77099;SDS011;66602;48.922;2.414;2023-11-18T01:01:26;14.57;;;10.40;;
77099;SDS011;66602;48.922;2.414;2023-11-18T01:03:51;14.38;;;9.88;;
77099;SDS011;66602;48.922;2.414;2023-11-18T01:06:18;16.95;;;9.35;;
77099;SDS011;66602;48.922;2.414;2023-11-18T01:08:44;14.32;;;10.05;;
77099;SDS011;66602;48.922;2.414;2023-11-18T01:11:11;12.40;;;9.55;;
77099;SDS011;66602;48.922;2.414;2023-11-18T01:13:40;14.95;;;9.40;;
77099;SDS011;66602;48.922;2.414;2023-11-18T01:16:05;11.95;;;9.75;;
77099;SDS011;66602;48.922;2.414;2023-11-18T01:18:31;15.63;;;9.07;;
77099;SDS011;66602;48.922;2.414;2023-11-18T01:20:56;11.02;;;9.52;;
77099;SDS011;66602;48.922;2.414;2023-11-18T01:23:24;13.57;;;9.75;;
77099;SDS011;66602;48.922;2.414;2023-11-18T01:25:49;10.15;;;8.32;;
77099;SDS011;66602;48.922;2.414;2023-11-18T01:28:16;12.13;;;8.93;;
77099;SDS011;66602;48.922;2.414;2023-11-18T01:30:41;16.17;;;9.30;;
77099;SDS011;66602;48.922;2.414;2023-11-18T01:33:09;9.25;;;8.25;;
77099;SDS011;66602;48.922;2.414;2023-11-18T01:35:35;12.93;;;9.15;;
77099;SDS011;66602;48.922;2.414;2023-11-18T01:38:01;10.77;;;9.13;;
77099;SDS011;66602;48.922;2.414;2023-11-18T01:40:27;10.40;;;8.32;;
77099;SDS011;66602;48.922;2.414;2023-11-18T01:42:55;25.70;;;9.52;;
77099;SDS011;66602;48.922;2.414;2023-11-18T01:45:20;15.70;;;8.73;;
77099;SDS011;66602;48.922;2.414;2023-11-18T01:47:46;12.40;;;8.60;;
77099;SDS011;66602;48.922;2.414;2023-11-18T01:50:13;9.57;;;7.70;;
77099;SDS011;66602;48.922;2.414;2023-11-18T01:52:42;9.63;;;7.90;;
77099;SDS011;66602;48.922;2.414;2023-11-18T01:55:09;10.23;;;7.35;;
77099;SDS011;66602;48.922;2.414;2023-11-18T01:57:35;21.00;;;9.25;;
77099;SDS011;66602;48.922;2.414;2023-11-18T02:00:02;15.73;;;8.52;;
77099;SDS011;66602;48.922;2.414;2023-11-18T02:02:32;9.88;;;8.70;;
77099;SDS011;66602;48.922;2.414;2023-11-18T02:04:58;14.18;;;8.68;;
77099;SDS011;66602;48.922;2.414;2023-11-18T02:07:27;13.07;;;7.85;;
77099;SDS011;66602;48.922;2.414;2023-11-18T02:09:53;9.75;;;8.02;;
77099;SDS011;66602;48.922;2.414;2023-11-18T02:12:25;11.88;;;7.60;;
77099;SDS011;66602;48.922;2.414;2023-11-18T02:15:03;10.13;;;7.88;;
77099;SDS011;66602;48.922;2.414;2023-11-18T02:17:35;10.55;;;7.45;;
77099;SDS011;66602;48.922;2.414;2023-11-18T02:20:03;17.92;;;7.28;;
77099;SDS011;66602;48.922;2.414;2023-11-18T02:22:40;12.25;;;7.65;;
77099;SDS011;66602;48.922;2.414;2023-11-18T02:25:06;9.02;;;7.63;;
77099;SDS011;66602;48.922;2.414;2023-11-18T02:27:35;8.52;;;7.50;;
77099;SDS011;66602;48.922;2.414;2023-11-18T02:30:00;11.02;;;6.75;;
77099;SDS011;66602;48.922;2.414;2023-11-18T02:32:33;9.00;;;6.60;;
77099;SDS011;66602;48.922;2.414;2023-11-18T02:35:09;12.43;;;6.55;;
77099;SDS011;66602;48.922;2.414;2023-11-18T02:40:10;12.13;;;6.80;;
77099;SDS011;66602;48.922;2.414;2023-11-18T02:42:41;11.55;;;6.57;;
77099;SDS011;66602;48.922;2.414;2023-11-18T02:45:08;6.15;;;5.63;;
77099;SDS011;66602;48.922;2.414;2023-11-18T02:47:37;8.52;;;5.22;;
77099;SDS011;66602;48.922;2.414;2023-11-18T02:50:04;8.23;;;5.60;;
77099;SDS011;66602;48.922;2.414;2023-11-18T02:52:36;12.73;;;6.70;;
77099;SDS011;66602;48.922;2.414;2023-11-18T02:55:03;13.10;;;6.40;;
77099;SDS011;66602;48.922;2.414;2023-11-18T02:57:36;12.23;;;5.70;;
77099;SDS011;66602;48.922;2.414;2023-11-18T03:00:02;9.45;;;6.22;;
77099;SDS011;66602;48.922;2.414;2023-11-18T03:02:36;7.22;;;4.97;;
77099;SDS011;66602;48.922;2.414;2023-11-18T03:05:05;7.18;;;5.72;;
77099;SDS011;66602;48.922;2.414;2023-11-18T03:07:32;7.05;;;5.00;;
77099;SDS011;66602;48.922;2.414;2023-11-18T03:09:58;9.82;;;5.20;;
77099;SDS011;66602;48.922;2.414;2023-11-18T03:12:25;9.70;;;5.40;;
77099;SDS011;66602;48.922;2.414;2023-11-18T03:14:54;5.35;;;4.90;;
77099;SDS011;66602;48.922;2.414;2023-11-18T03:17:19;5.20;;;4.90;;
77099;SDS011;66602;48.922;2.414;2023-11-18T03:19:47;11.05;;;5.55;;
77099;SDS011;66602;48.922;2.414;2023-11-18T03:22:15;7.43;;;4.63;;
77099;SDS011;66602;48.922;2.414;2023-11-18T03:24:40;12.07;;;4.97;;
77099;SDS011;66602;48.922;2.414;2023-11-18T03:27:07;6.05;;;4.88;;
77099;SDS011;66602;48.922;2.414;2023-11-18T03:29:34;8.10;;;4.60;;
77099;SDS011;66602;48.922;2.414;2023-11-18T03:31:59;8.38;;;5.10;;
77099;SDS011;66602;48.922;2.414;2023-11-18T03:34:25;7.85;;;4.72;;
77099;SDS011;66602;48.922;2.414;2023-11-18T03:36:50;6.53;;;4.80;;
77099;SDS011;66602;48.922;2.414;2023-11-18T03:39:17;10.73;;;4.60;;
77099;SDS011;66602;48.922;2.414;2023-11-18T03:41:42;8.07;;;4.70;;
77099;SDS011;66602;48.922;2.414;2023-11-18T03:44:12;9.05;;;4.50;;
77099;SDS011;66602;48.922;2.414;2023-11-18T03:46:38;5.28;;;4.70;;
77099;SDS011;66602;48.922;2.414;2023-11-18T03:49:03;6.38;;;4.20;;
77099;SDS011;66602;48.922;2.414;2023-11-18T03:51:29;17.20;;;5.40;;
77099;SDS011;66602;48.922;2.414;2023-11-18T03:53:55;8.77;;;4.57;;
77099;SDS011;66602;48.922;2.414;2023-11-18T03:56:20;9.18;;;4.85;;
77099;SDS011;66602;48.922;2.414;2023-11-18T03:58:46;10.52;;;4.85;;
77099;SDS011;66602;48.922;2.414;2023-11-18T04:01:22;4.82;;;4.07;;
77099;SDS011;66602;48.922;2.414;2023-11-18T04:03:51;5.88;;;4.80;;
77099;SDS011;66602;48.922;2.414;2023-11-18T04:06:17;5.93;;;4.05;;
77099;SDS011;66602;48.922;2.414;2023-11-18T04:08:45;9.23;;;4.53;;
77099;SDS011;66602;48.922;2.414;2023-11-18T04:11:11;8.30;;;4.35;;
77099;SDS011;66602;48.922;2.414;2023-11-18T04:13:39;8.45;;;4.70;;
77099;SDS011;66602;48.922;2.414;2023-11-18T04:16:05;9.07;;;4.78;;
77099;SDS011;66602;48.922;2.414;2023-11-18T04:18:31;11.32;;;5.03;;
77099;SDS011;66602;48.922;2.414;2023-11-18T04:20:57;17.40;;;4.68;;
77099;SDS011;66602;48.922;2.414;2023-11-18T04:23:23;7.72;;;4.85;;
77099;SDS011;66602;48.922;2.414;2023-11-18T04:25:48;11.25;;;5.00;;
77099;SDS011;66602;48.922;2.414;2023-11-18T04:28:15;7.65;;;4.65;;
77099;SDS011;66602;48.922;2.414;2023-11-18T04:30:40;8.50;;;4.30;;
77099;SDS011;66602;48.922;2.414;2023-11-18T04:33:06;7.43;;;3.72;;
77099;SDS011;66602;48.922;2.414;2023-11-18T04:35:31;5.65;;;4.18;;
77099;SDS011;66602;48.922;2.414;2023-11-18T04:37:59;5.25;;;3.95;;
77099;SDS011;66602;48.922;2.414;2023-11-18T04:40:25;11.23;;;3.75;;
77099;SDS011;66602;48.922;2.414;2023-11-18T04:42:50;4.95;;;4.30;;
77099;SDS011;66602;48.922;2.414;2023-11-18T04:45:16;6.68;;;3.92;;
77099;SDS011;66602;48.922;2.414;2023-11-18T04:47:41;11.10;;;3.70;;
77099;SDS011;66602;48.922;2.414;2023-11-18T04:50:08;11.70;;;4.32;;
77099;SDS011;66602;48.922;2.414;2023-11-18T04:52:35;6.03;;;3.70;;
77099;SDS011;66602;48.922;2.414;2023-11-18T04:55:01;5.90;;;3.90;;
77099;SDS011;66602;48.922;2.414;2023-11-18T04:57:28;5.60;;;3.50;;
77099;SDS011;66602;48.922;2.414;2023-11-18T04:59:53;6.68;;;3.55;;
77099;SDS011;66602;48.922;2.414;2023-11-18T05:02:19;5.90;;;3.97;;
77099;SDS011;66602;48.922;2.414;2023-11-18T05:04:45;7.43;;;3.75;;
77099;SDS011;66602;48.922;2.414;2023-11-18T05:07:10;6.10;;;3.80;;
77099;SDS011;66602;48.922;2.414;2023-11-18T05:09:36;5.38;;;3.63;;
77099;SDS011;66602;48.922;2.414;2023-11-18T05:12:02;9.38;;;4.50;;
77099;SDS011;66602;48.922;2.414;2023-11-18T05:14:28;6.35;;;3.75;;
77099;SDS011;66602;48.922;2.414;2023-11-18T05:16:54;6.40;;;3.97;;
77099;SDS011;66602;48.922;2.414;2023-11-18T05:19:19;8.98;;;4.43;;
77099;SDS011;66602;48.922;2.414;2023-11-18T05:21:45;3.65;;;3.35;;
77099;SDS011;66602;48.922;2.414;2023-11-18T05:24:14;6.43;;;4.13;;
77099;SDS011;66602;48.922;2.414;2023-11-18T05:26:40;7.60;;;4.03;;
77099;SDS011;66602;48.922;2.414;2023-11-18T05:29:05;6.40;;;4.30;;
77099;SDS011;66602;48.922;2.414;2023-11-18T05:31:31;11.02;;;3.95;;
77099;SDS011;66602;48.922;2.414;2023-11-18T05:33:58;7.65;;;3.88;;
77099;SDS011;66602;48.922;2.414;2023-11-18T05:36:23;5.82;;;4.32;;
77099;SDS011;66602;48.922;2.414;2023-11-18T05:38:54;9.75;;;4.50;;
77099;SDS011;66602;48.922;2.414;2023-11-18T05:41:20;6.15;;;4.28;;
77099;SDS011;66602;48.922;2.414;2023-11-18T05:43:53;6.15;;;4.07;;
77099;SDS011;66602;48.922;2.414;2023-11-18T05:46:22;8.55;;;4.22;;
77099;SDS011;66602;48.922;2.414;2023-11-18T05:48:50;8.10;;;4.22;;
77099;SDS011;66602;48.922;2.414;2023-11-18T05:51:24;4.70;;;3.58;;
77099;SDS011;66602;48.922;2.414;2023-11-18T05:53:51;7.68;;;3.83;;
77099;SDS011;66602;48.922;2.414;2023-11-18T05:56:17;8.90;;;4.22;;
77099;SDS011;66602;48.922;2.414;2023-11-18T05:58:43;5.03;;;4.00;;
77099;SDS011;66602;48.922;2.414;2023-11-18T06:01:09;12.23;;;3.83;;
77099;SDS011;66602;48.922;2.414;2023-11-18T06:03:36;5.82;;;2.95;;
77099;SDS011;66602;48.922;2.414;2023-11-18T06:06:05;7.07;;;3.78;;
77099;SDS011;66602;48.922;2.414;2023-11-18T06:08:32;7.20;;;3.22;;
77099;SDS011;66602;48.922;2.414;2023-11-18T06:10:58;9.73;;;3.25;;
77099;SDS011;66602;48.922;2.414;2023-11-18T06:13:25;3.92;;;2.58;;
77099;SDS011;66602;48.922;2.414;2023-11-18T06:15:52;4.75;;;3.03;;
77099;SDS011;66602;48.922;2.414;2023-11-18T06:18:18;3.65;;;2.80;;
77099;SDS011;66602;48.922;2.414;2023-11-18T06:20:44;4.07;;;2.80;;
77099;SDS011;66602;48.922;2.414;2023-11-18T06:23:09;8.75;;;2.85;;
77099;SDS011;66602;48.922;2.414;2023-11-18T06:25:35;3.13;;;2.83;;
77099;SDS011;66602;48.922;2.414;2023-11-18T06:28:01;6.65;;;3.10;;
77099;SDS011;66602;48.922;2.414;2023-11-18T06:30:27;3.92;;;2.60;;
77099;SDS011;66602;48.922;2.414;2023-11-18T06:32:53;5.47;;;3.05;;
77099;SDS011;66602;48.922;2.414;2023-11-18T06:35:18;7.05;;;2.40;;
77099;SDS011;66602;48.922;2.414;2023-11-18T06:37:46;3.35;;;2.92;;
77099;SDS011;66602;48.922;2.414;2023-11-18T06:40:12;4.80;;;2.78;;
77099;SDS011;66602;48.922;2.414;2023-11-18T06:42:44;8.88;;;2.60;;
77099;SDS011;66602;48.922;2.414;2023-11-18T06:45:14;10.30;;;2.60;;
77099;SDS011;66602;48.922;2.414;2023-11-18T06:47:40;7.13;;;3.05;;
77099;SDS011;66602;48.922;2.414;2023-11-18T06:50:10;5.10;;;2.20;;
77099;SDS011;66602;48.922;2.414;2023-11-18T06:52:39;6.80;;;3.13;;
77099;SDS011;66602;48.922;2.414;2023-11-18T06:55:06;6.22;;;2.75;;
77099;SDS011;66602;48.922;2.414;2023-11-18T06:57:33;4.95;;;2.33;;
77099;SDS011;66602;48.922;2.414;2023-11-18T06:59:59;2.42;;;1.90;;
77099;SDS011;66602;48.922;2.414;2023-11-18T07:02:24;5.63;;;2.30;;
77099;SDS011;66602;48.922;2.414;2023-11-18T07:04:50;8.20;;;3.92;;
77099;SDS011;66602;48.922;2.414;2023-11-18T07:07:15;4.25;;;2.78;;
77099;SDS011;66602;48.922;2.414;2023-11-18T07:09:41;5.90;;;3.25;;
77099;SDS011;66602;48.922;2.414;2023-11-18T07:12:09;4.53;;;2.65;;
77099;SDS011;66602;48.922;2.414;2023-11-18T07:14:35;10.93;;;3.13;;
77099;SDS011;66602;48.922;2.414;2023-11-18T07:17:00;2.97;;;2.42;;
77099;SDS011;66602;48.922;2.414;2023-11-18T07:19:25;5.40;;;2.80;;
77099;SDS011;66602;48.922;2.414;2023-11-18T07:21:51;4.68;;;2.47;;
77099;SDS011;66602;48.922;2.414;2023-11-18T07:24:17;4.38;;;3.17;;
77099;SDS011;66602;48.922;2.414;2023-11-18T07:26:43;2.97;;;2.70;;
77099;SDS011;66602;48.922;2.414;2023-11-18T07:29:09;2.58;;;2.38;;
77099;SDS011;66602;48.922;2.414;2023-11-18T07:31:34;7.72;;;3.40;;
77099;SDS011;66602;48.922;2.414;2023-11-18T07:34:02;2.20;;;2.10;;
77099;SDS011;66602;48.922;2.414;2023-11-18T07:36:28;6.45;;;2.40;;
77099;SDS011;66602;48.922;2.414;2023-11-18T07:38:54;8.10;;;2.55;;
77099;SDS011;66602;48.922;2.414;2023-11-18T07:41:20;4.25;;;2.40;;
77099;SDS011;66602;48.922;2.414;2023-11-18T07:43:49;3.42;;;2.53;;
77099;SDS011;66602;48.922;2.414;2023-11-18T07:46:16;4.70;;;3.03;;
77099;SDS011;66602;48.922;2.414;2023-11-18T07:48:41;2.72;;;2.40;;
77099;SDS011;66602;48.922;2.414;2023-11-18T07:51:06;5.15;;;2.30;;
77099;SDS011;66602;48.922;2.414;2023-11-18T07:53:33;2.35;;;2.03;;
77099;SDS011;66602;48.922;2.414;2023-11-18T07:55:59;7.50;;;2.72;;
77099;SDS011;66602;48.922;2.414;2023-11-18T07:58:27;4.28;;;2.30;;
77099;SDS011;66602;48.922;2.414;2023-11-18T08:00:53;2.28;;;2.03;;
77099;SDS011;66602;48.922;2.414;2023-11-18T08:03:19;3.22;;;1.80;;
77099;SDS011;66602;48.922;2.414;2023-11-18T08:05:45;2.25;;;2.05;;
77099;SDS011;66602;48.922;2.414;2023-11-18T08:08:13;1.90;;;1.80;;
77099;SDS011;66602;48.922;2.414;2023-11-18T08:10:42;2.65;;;2.50;;
77099;SDS011;66602;48.922;2.414;2023-11-18T08:13:09;2.47;;;2.25;;
77099;SDS011;66602;48.922;2.414;2023-11-18T08:15:38;2.10;;;2.00;;
77099;SDS011;66602;48.922;2.414;2023-11-18T08:18:05;3.15;;;2.10;;
77099;SDS011;66602;48.922;2.414;2023-11-18T08:20:31;1.67;;;1.65;;
77099;SDS011;66602;48.922;2.414;2023-11-18T08:22:57;2.58;;;2.10;;
77099;SDS011;66602;48.922;2.414;2023-11-18T08:25:22;3.10;;;2.05;;
77099;SDS011;66602;48.922;2.414;2023-11-18T08:27:48;2.40;;;2.30;;
77099;SDS011;66602;48.922;2.414;2023-11-18T08:30:14;1.95;;;1.85;;
77099;SDS011;66602;48.922;2.414;2023-11-18T08:32:43;1.98;;;1.88;;
77099;SDS011;66602;48.922;2.414;2023-11-18T08:35:09;2.33;;;2.22;;
77099;SDS011;66602;48.922;2.414;2023-11-18T08:37:38;1.90;;;1.80;;
77099;SDS011;66602;48.922;2.414;2023-11-18T08:40:04;2.10;;;2.00;;
77099;SDS011;66602;48.922;2.414;2023-11-18T08:42:40;1.65;;;1.65;;
77099;SDS011;66602;48.922;2.414;2023-11-18T08:45:15;2.25;;;2.10;;
77099;SDS011;66602;48.922;2.414;2023-11-18T08:47:53;1.83;;;1.73;;
77099;SDS011;66602;48.922;2.414;2023-11-18T08:50:20;3.08;;;1.65;;
77099;SDS011;66602;48.922;2.414;2023-11-18T08:52:49;2.00;;;1.70;;
77099;SDS011;66602;48.922;2.414;2023-11-18T08:55:18;2.45;;;2.30;;
77099;SDS011;66602;48.922;2.414;2023-11-18T08:57:46;2.28;;;2.17;;
77099;SDS011;66602;48.922;2.414;2023-11-18T09:00:28;2.05;;;1.85;;
77099;SDS011;66602;48.922;2.414;2023-11-18T09:03:26;2.03;;;1.83;;
77099;SDS011;66602;48.922;2.414;2023-11-18T09:05:52;2.40;;;1.75;;
77099;SDS011;66602;48.922;2.414;2023-11-18T09:08:23;2.00;;;1.90;;
77099;SDS011;66602;48.922;2.414;2023-11-18T09:10:48;2.45;;;2.28;;
77099;SDS011;66602;48.922;2.414;2023-11-18T09:13:14;2.03;;;1.92;;
77099;SDS011;66602;48.922;2.414;2023-11-18T09:15:49;4.60;;;2.38;;
77099;SDS011;66602;48.922;2.414;2023-11-18T09:18:15;2.13;;;2.03;;
77099;SDS011;66602;48.922;2.414;2023-11-18T09:20:43;2.33;;;2.20;;
77099;SDS011;66602;48.922;2.414;2023-11-18T09:23:09;2.45;;;2.20;;
77099;SDS011;66602;48.922;2.414;2023-11-18T09:25:34;3.05;;;2.42;;
77099;SDS011;66602;48.922;2.414;2023-11-18T09:28:01;2.75;;;2.42;;
77099;SDS011;66602;48.922;2.414;2023-11-18T09:30:28;2.30;;;2.20;;
77099;SDS011;66602;48.922;2.414;2023-11-18T09:32:54;2.47;;;2.30;;
77099;SDS011;66602;48.922;2.414;2023-11-18T09:35:20;2.42;;;2.22;;
77099;SDS011;66602;48.922;2.414;2023-11-18T09:37:46;2.45;;;2.35;;
77099;SDS011;66602;48.922;2.414;2023-11-18T09:40:15;2.47;;;2.38;;
77099;SDS011;66602;48.922;2.414;2023-11-18T09:42:43;2.58;;;2.45;;
77099;SDS011;66602;48.922;2.414;2023-11-18T09:45:11;2.97;;;2.28;;
77099;SDS011;66602;48.922;2.414;2023-11-18T09:47:41;2.60;;;2.40;;
77099;SDS011;66602;48.922;2.414;2023-11-18T09:50:08;3.97;;;2.20;;
77099;SDS011;66602;48.922;2.414;2023-11-18T09:52:37;2.50;;;2.40;;
77099;SDS011;66602;48.922;2.414;2023-11-18T09:55:09;2.75;;;2.50;;
77099;SDS011;66602;48.922;2.414;2023-11-18T09:57:46;2.70;;;2.50;;
77099;SDS011;66602;48.922;2.414;2023-11-18T10:00:22;2.50;;;2.30;;
77099;SDS011;66602;48.922;2.414;2023-11-18T10:02:58;2.35;;;2.25;;
77099;SDS011;66602;48.922;2.414;2023-11-18T10:05:26;2.40;;;2.30;;
77099;SDS011;66602;48.922;2.414;2023-11-18T10:07:52;2.80;;;2.60;;
77099;SDS011;66602;48.922;2.414;2023-11-18T10:10:19;2.97;;;2.38;;
77099;SDS011;66602;48.922;2.414;2023-11-18T10:12:50;5.13;;;3.30;;
77099;SDS011;66602;48.922;2.414;2023-11-18T10:15:39;5.22;;;2.45;;
77099;SDS011;66602;48.922;2.414;2023-11-18T10:18:05;2.25;;;2.15;;
77099;SDS011;66602;48.922;2.414;2023-11-18T10:20:44;2.55;;;2.45;;
77099;SDS011;66602;48.922;2.414;2023-11-18T10:23:10;3.35;;;3.15;;
77099;SDS011;66602;48.922;2.414;2023-11-18T10:25:41;6.07;;;2.63;;
77099;SDS011;66602;48.922;2.414;2023-11-18T10:30:56;4.68;;;2.80;;
77099;SDS011;66602;48.922;2.414;2023-11-18T10:33:28;4.07;;;3.70;;
77099;SDS011;66602;48.922;2.414;2023-11-18T10:35:56;4.38;;;3.20;;
77099;SDS011;66602;48.922;2.414;2023-11-18T10:38:22;3.08;;;2.88;;
77099;SDS011;66602;48.922;2.414;2023-11-18T10:40:54;4.10;;;3.75;;
77099;SDS011;66602;48.922;2.414;2023-11-18T10:43:21;4.90;;;3.45;;
77099;SDS011;66602;48.922;2.414;2023-11-18T10:45:52;5.32;;;3.17;;
77099;SDS011;66602;48.922;2.414;2023-11-18T10:48:30;3.08;;;2.85;;
77099;SDS011;66602;48.922;2.414;2023-11-18T10:50:55;3.30;;;3.10;;
77099;SDS011;66602;48.922;2.414;2023-11-18T10:53:24;3.25;;;2.75;;
77099;SDS011;66602;48.922;2.414;2023-11-18T10:55:51;10.70;;;5.05;;
77099;SDS011;66602;48.922;2.414;2023-11-18T10:58:17;3.53;;;2.42;;
77099;SDS011;66602;48.922;2.414;2023-11-18T11:00:49;2.30;;;2.20;;
77099;SDS011;66602;48.922;2.414;2023-11-18T11:03:18;5.43;;;2.42;;
77099;SDS011;66602;48.922;2.414;2023-11-18T11:05:43;3.45;;;1.90;;
77099;SDS011;66602;48.922;2.414;2023-11-18T11:08:13;3.00;;;2.10;;
77099;SDS011;66602;48.922;2.414;2023-11-18T11:10:41;5.22;;;2.78;;
77099;SDS011;66602;48.922;2.414;2023-11-18T11:13:09;2.97;;;2.05;;
77099;SDS011;66602;48.922;2.414;2023-11-18T11:15:42;2.72;;;2.55;;
77099;SDS011;66602;48.922;2.414;2023-11-18T11:18:20;2.35;;;2.20;;
77099;SDS011;66602;48.922;2.414;2023-11-18T11:29:48;3.80;;;2.95;;
77099;SDS011;66602;48.922;2.414;2023-11-18T11:34:54;2.17;;;1.95;;
77099;SDS011;66602;48.922;2.414;2023-11-18T11:37:33;3.20;;;2.20;;
77099;SDS011;66602;48.922;2.414;2023-11-18T11:40:02;3.60;;;2.28;;
77099;SDS011;66602;48.922;2.414;2023-11-18T11:45:01;2.67;;;2.38;;
77099;SDS011;66602;48.922;2.414;2023-11-18T11:47:29;2.45;;;2.35;;
77099;SDS011;66602;48.922;2.414;2023-11-18T11:50:06;3.03;;;2.55;;
77099;SDS011;66602;48.922;2.414;2023-11-18T11:52:39;3.25;;;2.42;;
77099;SDS011;66602;48.922;2.414;2023-11-18T11:55:15;3.10;;;2.45;;
77099;SDS011;66602;48.922;2.414;2023-11-18T11:57:55;3.97;;;2.63;;
77099;SDS011;66602;48.922;2.414;2023-11-18T12:00:23;4.28;;;2.50;;
77099;SDS011;66602;48.922;2.414;2023-11-18T12:02:53;3.00;;;2.33;;
77099;SDS011;66602;48.922;2.414;2023-11-18T12:05:24;2.70;;;2.50;;
77099;SDS011;66602;48.922;2.414;2023-11-18T12:07:54;2.45;;;2.35;;
77099;SDS011;66602;48.922;2.414;2023-11-18T12:10:21;2.25;;;2.15;;
77099;SDS011;66602;48.922;2.414;2023-11-18T12:13:03;2.70;;;2.55;;
77099;SDS011;66602;48.922;2.414;2023-11-18T12:15:51;5.85;;;2.30;;
77099;SDS011;66602;48.922;2.414;2023-11-18T12:18:22;3.47;;;3.00;;
77099;SDS011;66602;48.922;2.414;2023-11-18T12:20:49;3.00;;;2.50;;
77099;SDS011;66602;48.922;2.414;2023-11-18T12:23:22;2.50;;;2.40;;
77099;SDS011;66602;48.922;2.414;2023-11-18T12:25:53;2.75;;;2.00;;
77099;SDS011;66602;48.922;2.414;2023-11-18T12:28:20;3.63;;;3.10;;
77099;SDS011;66602;48.922;2.414;2023-11-18T12:30:52;2.40;;;2.30;;
77099;SDS011;66602;48.922;2.414;2023-11-18T12:33:25;3.53;;;3.22;;
77099;SDS011;66602;48.922;2.414;2023-11-18T12:42:06;2.33;;;2.10;;
77099;SDS011;66602;48.922;2.414;2023-11-18T12:47:31;3.40;;;2.97;;
77099;SDS011;66602;48.922;2.414;2023-11-18T12:50:07;3.75;;;2.85;;
77099;SDS011;66602;48.922;2.414;2023-11-18T12:52:42;3.30;;;3.00;;
77099;SDS011;66602;48.922;2.414;2023-11-18T12:55:11;2.50;;;2.40;;
77099;SDS011;66602;48.922;2.414;2023-11-18T12:57:47;4.97;;;2.50;;
77099;SDS011;66602;48.922;2.414;2023-11-18T13:00:14;2.72;;;2.63;;
77099;SDS011;66602;48.922;2.414;2023-11-18T13:02:52;2.75;;;2.65;;
77099;SDS011;66602;48.922;2.414;2023-11-18T13:05:19;2.47;;;2.30;;
77099;SDS011;66602;48.922;2.414;2023-11-18T13:07:45;4.13;;;3.70;;
77099;SDS011;66602;48.922;2.414;2023-11-18T13:10:12;2.60;;;2.50;;
77099;SDS011;66602;48.922;2.414;2023-11-18T13:12:41;2.83;;;2.60;;
77099;SDS011;66602;48.922;2.414;2023-11-18T13:15:08;1.80;;;1.70;;
77099;SDS011;66602;48.922;2.414;2023-11-18T13:17:34;2.35;;;2.05;;
77099;SDS011;66602;48.922;2.414;2023-11-18T13:20:12;2.20;;;2.10;;
77099;SDS011;66602;48.922;2.414;2023-11-18T13:22:39;2.95;;;2.25;;
77099;SDS011;66602;48.922;2.414;2023-11-18T13:25:06;2.35;;;2.20;;
77099;SDS011;66602;48.922;2.414;2023-11-18T13:27:32;3.70;;;2.10;;
77099;SDS011;66602;48.922;2.414;2023-11-18T13:29:57;2.15;;;2.05;;
77099;SDS011;66602;48.922;2.414;2023-11-18T13:32:23;4.53;;;2.90;;
77099;SDS011;66602;48.922;2.414;2023-11-18T13:34:50;4.22;;;3.42;;
77099;SDS011;66602;48.922;2.414;2023-11-18T13:37:17;2.92;;;2.72;;
77099;SDS011;66602;48.922;2.414;2023-11-18T13:39:52;2.33;;;2.22;;
77099;SDS011;66602;48.922;2.414;2023-11-18T13:42:20;3.50;;;3.15;;
77099;SDS011;66602;48.922;2.414;2023-11-18T13:44:47;2.88;;;2.30;;
77099;SDS011;66602;48.922;2.414;2023-11-18T13:47:13;5.13;;;2.80;;
77099;SDS011;66602;48.922;2.414;2023-11-18T13:49:41;2.65;;;2.47;;
77099;SDS011;66602;48.922;2.414;2023-11-18T13:52:07;2.67;;;2.47;;
77099;SDS011;66602;48.922;2.414;2023-11-18T13:54:36;2.50;;;2.40;;
77099;SDS011;66602;48.922;2.414;2023-11-18T13:57:02;3.85;;;2.40;;
77099;SDS011;66602;48.922;2.414;2023-11-18T13:59:29;2.53;;;2.38;;
77099;SDS011;66602;48.922;2.414;2023-11-18T14:01:55;2.58;;;2.38;;
77099;SDS011;66602;48.922;2.414;2023-11-18T14:04:26;3.10;;;2.42;;
77099;SDS011;66602;48.922;2.414;2023-11-18T14:06:52;3.58;;;2.53;;
77099;SDS011;66602;48.922;2.414;2023-11-18T14:09:19;3.90;;;2.45;;
77099;SDS011;66602;48.922;2.414;2023-11-18T14:11:53;2.33;;;2.15;;
77099;SDS011;66602;48.922;2.414;2023-11-18T14:14:22;2.95;;;2.72;;
77099;SDS011;66602;48.922;2.414;2023-11-18T14:16:50;2.75;;;2.60;;
77099;SDS011;66602;48.922;2.414;2023-11-18T14:19:18;4.63;;;3.22;;
77099;SDS011;66602;48.922;2.414;2023-11-18T14:21:44;5.25;;;2.90;;
77099;SDS011;66602;48.922;2.414;2023-11-18T14:24:10;3.63;;;3.42;;
77099;SDS011;66602;48.922;2.414;2023-11-18T14:26:37;3.95;;;3.75;;
77099;SDS011;66602;48.922;2.414;2023-11-18T14:29:06;3.28;;;2.20;;
77099;SDS011;66602;48.922;2.414;2023-11-18T14:31:33;2.85;;;2.45;;
77099;SDS011;66602;48.922;2.414;2023-11-18T14:34:01;2.70;;;2.50;;
77099;SDS011;66602;48.922;2.414;2023-11-18T14:36:27;3.72;;;2.42;;
77099;SDS011;66602;48.922;2.414;2023-11-18T14:38:54;3.22;;;2.30;;
77099;SDS011;66602;48.922;2.414;2023-11-18T14:41:20;2.63;;;2.42;;
77099;SDS011;66602;48.922;2.414;2023-11-18T14:43:50;3.03;;;2.83;;
77099;SDS011;66602;48.922;2.414;2023-11-18T14:46:16;2.55;;;2.42;;
77099;SDS011;66602;48.922;2.414;2023-11-18T14:48:43;2.50;;;2.30;;
77099;SDS011;66602;48.922;2.414;2023-11-18T14:51:09;3.67;;;2.58;;
77099;SDS011;66602;48.922;2.414;2023-11-18T14:53:35;2.22;;;2.13;;
77099;SDS011;66602;48.922;2.414;2023-11-18T14:56:04;4.10;;;2.40;;
77099;SDS011;66602;48.922;2.414;2023-11-18T14:58:31;3.53;;;2.28;;
77099;SDS011;66602;48.922;2.414;2023-11-18T15:01:01;2.30;;;2.20;;
77099;SDS011;66602;48.922;2.414;2023-11-18T15:03:27;2.92;;;2.72;;
77099;SDS011;66602;48.922;2.414;2023-11-18T15:05:54;2.45;;;2.35;;
77099;SDS011;66602;48.922;2.414;2023-11-18T15:08:20;2.85;;;2.65;;
77099;SDS011;66602;48.922;2.414;2023-11-18T15:10:45;2.65;;;2.45;;
77099;SDS011;66602;48.922;2.414;2023-11-18T15:13:11;3.20;;;2.53;;
77099;SDS011;66602;48.922;2.414;2023-11-18T15:15:41;5.35;;;2.35;;
77099;SDS011;66602;48.922;2.414;2023-11-18T15:18:08;3.50;;;2.63;;